createdAt,value
2018-12-09T00:01:09.875Z,8.10
2018-12-09T00:03:37.423Z,8.10
2018-12-09T00:06:05.003Z,8.20
2018-12-09T00:08:32.598Z,8.20
2018-12-09T00:11:00.218Z,8.20
2018-12-09T00:13:27.800Z,8.20
2018-12-09T00:15:55.335Z,8.20
2018-12-09T00:18:22.890Z,8.20
2018-12-09T00:20:50.466Z,8.20
2018-12-09T00:23:18.158Z,8.20
2018-12-09T00:25:45.694Z,8.20
2018-12-09T00:28:13.288Z,8.30
2018-12-09T00:30:40.862Z,8.30
2018-12-09T00:33:08.394Z,8.30
2018-12-09T00:35:36.062Z,8.30
2018-12-09T00:38:03.590Z,8.30
2018-12-09T00:40:31.141Z,8.30
2018-12-09T00:42:59.345Z,8.30
2018-12-09T00:45:26.900Z,8.30
2018-12-09T00:47:54.432Z,8.30
2018-12-09T00:50:22.012Z,8.30
2018-12-09T00:52:49.543Z,8.20
2018-12-09T00:55:17.082Z,8.20
2018-12-09T00:57:44.677Z,8.20
2018-12-09T01:00:12.556Z,8.20
2018-12-09T01:02:40.154Z,8.20
2018-12-09T01:05:07.818Z,8.20
2018-12-09T01:07:35.414Z,8.20
2018-12-09T01:10:03.562Z,8.20
2018-12-09T01:12:31.169Z,8.20
2018-12-09T01:14:58.700Z,8.20
2018-12-09T01:17:26.239Z,8.20
2018-12-09T01:19:53.815Z,8.10
2018-12-09T01:22:21.339Z,8.10
2018-12-09T01:24:48.869Z,8.10
2018-12-09T01:27:16.458Z,8.10
2018-12-09T01:29:44.004Z,8.10
2018-12-09T01:32:11.543Z,8.00
2018-12-09T01:34:39.127Z,8.00
2018-12-09T01:37:06.662Z,7.90
2018-12-09T01:39:34.277Z,7.80
2018-12-09T01:42:02.290Z,7.80
2018-12-09T01:44:30.529Z,7.70
2018-12-09T01:46:58.094Z,7.70
2018-12-09T01:49:25.686Z,7.70
2018-12-09T01:51:53.236Z,7.70
2018-12-09T01:54:20.832Z,7.70
2018-12-09T01:56:48.484Z,7.60
2018-12-09T01:59:16.062Z,7.60
2018-12-09T02:01:43.592Z,7.60
2018-12-09T02:04:11.206Z,7.60
2018-12-09T02:06:38.901Z,7.50
2018-12-09T02:09:07.043Z,7.50
2018-12-09T02:11:34.634Z,7.50
2018-12-09T02:14:02.291Z,7.50
2018-12-09T02:16:30.141Z,7.50
2018-12-09T02:19:14.199Z,7.50
2018-12-09T02:21:42.264Z,7.50
2018-12-09T02:24:09.856Z,7.50
2018-12-09T02:26:37.432Z,7.50
2018-12-09T02:29:04.986Z,7.40
2018-12-09T02:31:32.590Z,7.40
2018-12-09T02:34:00.196Z,7.40
2018-12-09T02:36:27.799Z,7.30
2018-12-09T02:38:55.343Z,7.30
2018-12-09T02:41:23.027Z,7.30
2018-12-09T02:43:50.626Z,7.30
2018-12-09T02:46:18.177Z,7.20
2018-12-09T02:48:45.733Z,7.20
2018-12-09T02:51:13.322Z,7.20
2018-12-09T02:53:41.053Z,7.20
2018-12-09T02:56:08.642Z,7.10
2018-12-09T02:58:36.175Z,7.10
2018-12-09T03:01:04.201Z,7.10
2018-12-09T03:03:31.733Z,7.10
2018-12-09T03:05:59.271Z,7.00
2018-12-09T03:08:26.856Z,7.00
2018-12-09T03:10:54.415Z,7.00
2018-12-09T03:13:22.278Z,7.00
2018-12-09T03:15:49.869Z,6.90
2018-12-09T03:18:17.419Z,6.90
2018-12-09T03:20:44.951Z,6.90
2018-12-09T03:23:12.510Z,6.90
2018-12-09T03:25:40.106Z,6.90
2018-12-09T03:28:07.749Z,6.80
2018-12-09T03:30:35.295Z,6.80
2018-12-09T03:33:02.878Z,6.90
2018-12-09T03:35:30.552Z,6.80
2018-12-09T03:37:58.307Z,6.80
2018-12-09T03:40:25.902Z,6.80
2018-12-09T03:42:53.435Z,6.80
2018-12-09T03:45:21.026Z,6.70
2018-12-09T03:47:48.874Z,6.70
2018-12-09T03:50:16.476Z,6.70
2018-12-09T03:52:44.080Z,6.70
2018-12-09T03:55:11.763Z,6.70
2018-12-09T03:57:39.317Z,6.70
2018-12-09T04:00:08.023Z,6.70
2018-12-09T04:02:35.602Z,6.60
2018-12-09T04:05:03.228Z,6.60
2018-12-09T04:07:30.763Z,6.50
2018-12-09T04:09:58.348Z,6.50
2018-12-09T04:12:25.972Z,6.50
2018-12-09T04:14:53.505Z,6.50
2018-12-09T04:17:21.055Z,6.40
2018-12-09T04:19:48.662Z,6.50
2018-12-09T04:22:16.200Z,6.50
2018-12-09T04:24:43.743Z,6.40
2018-12-09T04:27:11.363Z,6.40
2018-12-09T04:29:39.058Z,6.40
2018-12-09T04:32:06.634Z,6.40
2018-12-09T04:34:34.192Z,6.40
2018-12-09T04:37:01.731Z,6.40
2018-12-09T04:39:29.314Z,6.40
2018-12-09T04:41:56.862Z,6.40
2018-12-09T04:44:24.395Z,6.40
2018-12-09T04:46:51.962Z,6.40
2018-12-09T04:49:19.506Z,6.30
2018-12-09T04:51:53.239Z,6.30
2018-12-09T04:54:20.967Z,6.30
2018-12-09T04:56:48.551Z,6.30
2018-12-09T04:59:18.463Z,6.20
2018-12-09T05:01:46.411Z,6.20
2018-12-09T05:04:14.087Z,6.20
2018-12-09T05:06:41.703Z,6.20
2018-12-09T05:09:09.280Z,6.20
2018-12-09T05:11:36.890Z,6.30
2018-12-09T05:14:04.754Z,6.30
2018-12-09T05:16:32.397Z,6.30
2018-12-09T05:19:00.051Z,6.30
2018-12-09T05:21:27.769Z,6.40
2018-12-09T05:23:55.324Z,6.40
2018-12-09T05:26:23.359Z,6.40
2018-12-09T05:28:51.572Z,6.50
2018-12-09T05:31:19.141Z,6.50
2018-12-09T05:33:46.712Z,6.50
2018-12-09T05:36:14.309Z,6.50
2018-12-09T05:38:42.171Z,6.50
2018-12-09T05:41:09.763Z,6.50
2018-12-09T05:43:37.369Z,6.60
2018-12-09T05:46:04.936Z,6.60
2018-12-09T05:48:32.520Z,6.60
2018-12-09T05:51:00.379Z,6.60
2018-12-09T05:53:28.141Z,6.60
2018-12-09T05:55:55.765Z,6.60
2018-12-09T05:58:25.249Z,6.60
2018-12-09T06:00:52.867Z,6.60
2018-12-09T06:03:20.778Z,6.60
2018-12-09T06:05:49.009Z,6.50
2018-12-09T06:08:16.563Z,6.50
2018-12-09T06:10:44.142Z,6.60
2018-12-09T06:13:11.687Z,6.60
2018-12-09T06:15:39.839Z,6.60
2018-12-09T06:18:07.426Z,6.50
2018-12-09T06:20:34.954Z,6.50
2018-12-09T06:23:02.482Z,6.60
2018-12-09T06:25:30.069Z,6.60
2018-12-09T06:27:57.618Z,6.60
2018-12-09T06:30:25.221Z,6.60
2018-12-09T06:32:52.819Z,6.70
2018-12-09T06:35:20.358Z,6.70
2018-12-09T06:37:47.914Z,6.70
2018-12-09T06:40:15.494Z,6.70
2018-12-09T06:42:43.035Z,6.70
2018-12-09T06:45:10.586Z,6.80
2018-12-09T06:47:38.207Z,6.80
2018-12-09T06:50:05.904Z,6.80
2018-12-09T06:52:33.488Z,6.80
2018-12-09T06:55:01.034Z,6.80
2018-12-09T06:57:28.583Z,6.80
2018-12-09T06:59:56.175Z,6.80
2018-12-09T07:02:23.798Z,6.80
2018-12-09T07:04:51.374Z,6.90
2018-12-09T07:07:19.379Z,6.90
2018-12-09T07:09:46.919Z,6.90
2018-12-09T07:12:14.450Z,6.90
2018-12-09T07:14:42.016Z,6.90
2018-12-09T07:17:09.583Z,6.90
2018-12-09T07:19:37.170Z,7.00
2018-12-09T07:22:04.849Z,7.00
2018-12-09T07:24:32.402Z,7.00
2018-12-09T07:26:59.967Z,7.00
2018-12-09T07:29:27.507Z,7.00
2018-12-09T07:31:55.081Z,7.00
2018-12-09T07:34:22.647Z,7.00
2018-12-09T07:36:50.179Z,7.00
2018-12-09T07:39:17.763Z,7.00
2018-12-09T07:41:45.323Z,7.00
2018-12-09T07:44:12.918Z,7.00
2018-12-09T07:46:41.650Z,7.10
2018-12-09T07:49:09.247Z,7.10
2018-12-09T07:51:36.832Z,7.10
2018-12-09T07:54:04.364Z,7.10
2018-12-09T07:56:31.906Z,7.20
2018-12-09T07:58:59.471Z,7.20
2018-12-09T08:01:27.009Z,7.20
2018-12-09T08:03:54.611Z,7.10
2018-12-09T08:06:22.164Z,7.20
2018-12-09T08:08:49.877Z,7.10
2018-12-09T08:11:17.623Z,7.20
2018-12-09T08:13:45.162Z,7.20
2018-12-09T08:16:12.707Z,7.20
2018-12-09T08:18:40.302Z,7.30
2018-12-09T08:21:09.143Z,7.30
2018-12-09T08:23:36.876Z,7.40
2018-12-09T08:26:04.513Z,7.40
2018-12-09T08:28:32.120Z,7.40
2018-12-09T08:30:59.669Z,7.40
2018-12-09T08:33:27.218Z,7.50
2018-12-09T08:35:54.799Z,7.50
2018-12-09T08:38:22.379Z,7.50
2018-12-09T08:40:49.925Z,7.60
2018-12-09T08:43:17.544Z,7.60
2018-12-09T08:45:45.134Z,7.60
2018-12-09T08:48:13.593Z,7.70
2018-12-09T08:50:41.196Z,7.80
2018-12-09T08:53:08.848Z,8.00
2018-12-09T08:55:36.443Z,8.20
2018-12-09T08:58:04.124Z,8.30
2018-12-09T09:00:31.689Z,8.40
2018-12-09T09:02:59.242Z,8.50
2018-12-09T09:05:26.834Z,8.70
2018-12-09T09:07:54.407Z,8.70
2018-12-09T09:10:22.077Z,8.70
2018-12-09T09:12:49.854Z,8.50
2018-12-09T09:15:17.404Z,8.40
2018-12-09T09:17:45.046Z,8.30
2018-12-09T09:20:12.650Z,8.20
2018-12-09T09:22:40.201Z,8.10
2018-12-09T09:25:07.757Z,8.10
2018-12-09T09:27:35.329Z,8.10
2018-12-09T09:30:03.706Z,8.10
2018-12-09T09:32:31.318Z,8.10
2018-12-09T09:34:59.486Z,8.00
2018-12-09T09:37:27.055Z,8.00
2018-12-09T09:39:54.657Z,8.10
2018-12-09T09:42:22.194Z,8.10
2018-12-09T09:44:49.745Z,8.20
2018-12-09T09:47:17.323Z,8.20
2018-12-09T09:49:44.863Z,8.20
2018-12-09T09:52:12.456Z,8.30
2018-12-09T09:54:40.027Z,8.30
2018-12-09T09:57:07.550Z,8.30
2018-12-09T09:59:35.120Z,8.30
2018-12-09T10:02:02.674Z,8.30
2018-12-09T10:04:30.214Z,8.30
2018-12-09T10:06:57.815Z,8.30
2018-12-09T10:09:25.369Z,8.30
2018-12-09T10:11:52.953Z,8.30
2018-12-09T10:14:20.563Z,8.40
2018-12-09T10:16:48.155Z,8.50
2018-12-09T10:19:16.246Z,8.60
2018-12-09T10:21:43.794Z,8.60
2018-12-09T10:24:11.408Z,8.60
2018-12-09T10:26:38.943Z,8.60
2018-12-09T10:29:06.494Z,8.60
2018-12-09T10:31:34.058Z,8.60
2018-12-09T10:34:01.586Z,8.50
2018-12-09T10:36:29.270Z,8.50
2018-12-09T10:38:56.814Z,8.50
2018-12-09T10:41:24.363Z,8.50
2018-12-09T10:43:51.931Z,8.50
2018-12-09T10:46:19.494Z,8.50
2018-12-09T10:48:47.183Z,8.50
2018-12-09T10:51:14.739Z,8.50
2018-12-09T10:53:42.302Z,8.60
2018-12-09T10:56:10.409Z,8.60
2018-12-09T10:58:37.979Z,8.80
2018-12-09T11:01:06.821Z,8.60
2018-12-09T11:03:34.363Z,8.60
2018-12-09T11:06:01.910Z,8.60
2018-12-09T11:08:29.504Z,8.60
2018-12-09T11:10:57.057Z,8.60
2018-12-09T11:13:24.622Z,8.50
2018-12-09T11:15:52.210Z,8.50
2018-12-09T11:18:20.369Z,8.60
2018-12-09T11:20:47.961Z,8.80
2018-12-09T11:23:15.538Z,8.90
2018-12-09T11:25:43.079Z,9.00
2018-12-09T11:28:10.614Z,9.00
2018-12-09T11:30:38.194Z,9.00
2018-12-09T11:33:05.767Z,9.00
2018-12-09T11:35:33.303Z,8.90
2018-12-09T11:38:00.975Z,8.90
2018-12-09T11:40:28.633Z,8.90
2018-12-09T11:42:56.167Z,8.90
2018-12-09T11:45:23.777Z,8.70
2018-12-09T11:47:52.111Z,8.50
2018-12-09T11:50:19.857Z,8.30
2018-12-09T11:52:47.652Z,8.20
2018-12-09T11:55:15.571Z,8.20
2018-12-09T11:57:43.386Z,8.10
2018-12-09T12:00:12.488Z,8.00
2018-12-09T12:02:40.063Z,8.00
2018-12-09T12:05:07.734Z,8.00
2018-12-09T12:07:35.328Z,8.10
2018-12-09T12:10:03.203Z,8.10
2018-12-09T12:12:30.739Z,8.10
2018-12-09T12:14:58.322Z,8.00
2018-12-09T12:17:25.854Z,7.90
2018-12-09T12:19:53.387Z,7.90
2018-12-09T12:22:20.964Z,7.90
2018-12-09T12:24:48.498Z,7.90
2018-12-09T12:27:16.031Z,7.90
2018-12-09T12:29:43.599Z,7.90
2018-12-09T12:32:11.192Z,7.90
2018-12-09T12:34:38.725Z,7.80
2018-12-09T12:37:06.268Z,7.80
2018-12-09T12:39:33.868Z,7.80
2018-12-09T12:42:01.413Z,7.90
2018-12-09T12:44:28.946Z,7.90
2018-12-09T12:46:56.598Z,7.90
2018-12-09T12:49:24.606Z,7.90
2018-12-09T12:51:52.144Z,7.90
2018-12-09T12:54:19.734Z,8.00
2018-12-09T12:56:47.262Z,8.00
2018-12-09T12:59:15.057Z,7.90
2018-12-09T13:01:42.655Z,7.90
2018-12-09T13:04:10.189Z,8.00
2018-12-09T13:06:37.794Z,7.90
2018-12-09T13:09:06.429Z,7.90
2018-12-09T13:11:33.977Z,8.00
2018-12-09T13:14:01.584Z,8.00
2018-12-09T13:16:29.155Z,8.00
2018-12-09T13:18:56.691Z,7.90
2018-12-09T13:21:24.271Z,8.00
2018-12-09T13:23:51.814Z,8.20
2018-12-09T13:26:19.499Z,8.20
2018-12-09T13:28:47.184Z,8.20
2018-12-09T13:31:15.485Z,8.10
2018-12-09T13:33:43.050Z,8.10
2018-12-09T13:36:10.810Z,8.10
2018-12-09T13:38:38.454Z,8.10
2018-12-09T13:41:06.010Z,8.10
2018-12-09T13:43:33.610Z,8.10
2018-12-09T13:46:01.279Z,8.10
2018-12-09T13:48:28.913Z,8.10
2018-12-09T13:50:56.503Z,8.10
2018-12-09T13:53:24.623Z,8.00
2018-12-09T13:55:52.213Z,8.10
2018-12-09T13:58:19.814Z,8.00
2018-12-09T14:00:47.400Z,8.00
2018-12-09T14:03:14.967Z,8.00
2018-12-09T14:05:42.510Z,8.00
2018-12-09T14:08:10.134Z,7.90
2018-12-09T14:10:37.668Z,7.90
2018-12-09T14:13:05.201Z,7.90
2018-12-09T14:15:33.002Z,7.90
2018-12-09T14:18:01.255Z,7.80
2018-12-09T14:20:28.926Z,7.80
2018-12-09T14:22:56.591Z,7.70
2018-12-09T14:25:24.158Z,7.80
2018-12-09T14:27:51.753Z,7.70
2018-12-09T14:30:19.587Z,7.70
2018-12-09T14:32:47.187Z,7.60
2018-12-09T14:35:14.764Z,7.60
2018-12-09T14:37:42.423Z,7.60
2018-12-09T14:40:10.299Z,7.60
2018-12-09T14:42:37.851Z,7.60
2018-12-09T14:45:06.331Z,7.60
2018-12-09T14:47:33.940Z,7.60
2018-12-09T14:50:01.496Z,7.60
2018-12-09T14:52:29.035Z,7.60
2018-12-09T14:54:56.613Z,7.60
2018-12-09T14:57:24.279Z,7.60
2018-12-09T14:59:52.353Z,7.60
2018-12-09T15:02:21.096Z,7.50
2018-12-09T15:04:48.647Z,7.60
2018-12-09T15:07:16.235Z,7.60
2018-12-09T15:09:44.402Z,7.50
2018-12-09T15:12:12.468Z,7.50
2018-12-09T15:14:40.890Z,7.50
2018-12-09T15:17:08.540Z,7.40
2018-12-09T15:19:36.123Z,7.40
2018-12-09T15:22:05.442Z,7.40
2018-12-09T15:24:41.214Z,7.30
2018-12-09T15:27:03.033Z,7.30
2018-12-09T15:29:30.565Z,7.30
2018-12-09T15:31:58.178Z,7.30
2018-12-09T15:34:25.756Z,7.30
2018-12-09T15:36:53.297Z,7.30
2018-12-09T15:39:20.844Z,7.30
2018-12-09T15:41:48.436Z,7.30
2018-12-09T15:44:15.987Z,7.30
2018-12-09T15:46:43.612Z,7.30
2018-12-09T15:49:11.214Z,7.30
2018-12-09T15:51:39.669Z,7.30
2018-12-09T15:54:07.385Z,7.40
2018-12-09T15:56:35.060Z,7.30
2018-12-09T15:59:02.626Z,7.30
2018-12-09T16:01:30.163Z,7.40
2018-12-09T16:03:57.747Z,7.40
2018-12-09T16:06:25.296Z,7.40
2018-12-09T16:08:52.833Z,7.40
2018-12-09T16:11:20.475Z,7.40
2018-12-09T16:13:48.357Z,7.40
2018-12-09T16:16:15.894Z,7.40
2018-12-09T16:18:43.477Z,7.40
2018-12-09T16:21:11.026Z,7.40
2018-12-09T16:23:38.558Z,7.30
2018-12-09T16:26:06.138Z,7.30
2018-12-09T16:28:33.675Z,7.20
2018-12-09T16:31:01.219Z,7.20
2018-12-09T16:33:28.805Z,7.20
2018-12-09T16:35:56.358Z,7.20
2018-12-09T16:38:23.973Z,7.20
2018-12-09T16:40:51.831Z,7.20
2018-12-09T16:43:19.371Z,7.20
2018-12-09T16:45:46.919Z,7.20
2018-12-09T16:48:14.518Z,7.20
2018-12-09T16:50:42.068Z,7.20
2018-12-09T16:53:09.599Z,7.20
2018-12-09T16:57:47.312Z,7.20
2018-12-09T17:00:14.898Z,7.20
2018-12-09T17:02:42.600Z,7.20
2018-12-09T17:05:10.260Z,7.20
2018-12-09T17:07:42.057Z,7.20
2018-12-09T17:10:07.415Z,7.50
2018-12-09T17:12:35.015Z,7.70
2018-12-09T17:15:02.573Z,7.80
2018-12-09T17:17:30.278Z,8.00
2018-12-09T17:20:05.926Z,8.10
2018-12-09T17:22:27.608Z,8.10
2018-12-09T17:24:55.364Z,8.10
2018-12-09T17:27:23.675Z,7.90
2018-12-09T17:29:51.241Z,7.70
2018-12-09T17:32:18.792Z,7.60
2018-12-09T17:34:46.385Z,7.50
2018-12-09T17:37:13.927Z,7.50
2018-12-09T17:39:41.470Z,7.40
2018-12-09T17:42:09.066Z,7.80
2018-12-09T17:44:36.934Z,8.40
2018-12-09T17:47:04.486Z,8.80
2018-12-09T17:49:32.095Z,9.00
2018-12-09T17:51:59.647Z,9.20
2018-12-09T17:54:27.196Z,9.20
2018-12-09T17:56:54.842Z,9.20
2018-12-09T17:59:22.381Z,9.10
2018-12-09T18:01:49.914Z,8.60
2018-12-09T18:04:17.514Z,8.30
2018-12-09T18:06:45.068Z,7.90
2018-12-09T18:09:12.674Z,7.70
2018-12-09T18:11:40.293Z,7.60
2018-12-09T18:14:07.840Z,7.50
2018-12-09T18:16:35.398Z,7.50
2018-12-09T18:19:02.980Z,7.40
2018-12-09T18:21:30.523Z,7.30
2018-12-09T18:23:58.307Z,7.20
2018-12-09T18:26:25.910Z,7.20
2018-12-09T18:28:53.459Z,7.20
2018-12-09T18:31:21.087Z,7.10
2018-12-09T18:33:48.666Z,7.10
2018-12-09T18:36:16.205Z,7.10
2018-12-09T18:38:43.743Z,7.00
2018-12-09T18:41:11.519Z,7.20
2018-12-09T18:43:39.091Z,7.00
2018-12-09T18:46:06.623Z,7.10
2018-12-09T18:48:34.209Z,7.10
2018-12-09T18:51:01.743Z,7.10
2018-12-09T18:53:29.283Z,7.00
2018-12-09T18:55:56.867Z,7.00
2018-12-09T18:58:25.330Z,7.00
2018-12-09T19:00:52.884Z,6.90
2018-12-09T19:03:20.468Z,6.90
2018-12-09T19:05:48.402Z,7.00
2018-12-09T19:08:15.930Z,7.00
2018-12-09T19:10:43.691Z,6.90
2018-12-09T19:13:11.270Z,6.90
2018-12-09T19:15:38.806Z,6.90
2018-12-09T19:18:06.382Z,6.90
2018-12-09T19:20:33.914Z,6.90
2018-12-09T19:23:01.491Z,6.90
2018-12-09T19:25:29.081Z,6.80
2018-12-09T19:27:57.028Z,6.70
2018-12-09T19:30:24.559Z,6.60
2018-12-09T19:32:52.184Z,6.50
2018-12-09T19:35:19.764Z,6.40
2018-12-09T19:37:47.342Z,6.40
2018-12-09T19:40:15.011Z,6.30
2018-12-09T19:42:42.855Z,6.20
2018-12-09T19:45:10.486Z,6.20
2018-12-09T19:47:38.149Z,6.20
2018-12-09T19:50:06.239Z,6.30
2018-12-09T19:52:34.051Z,6.30
2018-12-09T19:55:01.690Z,6.30
2018-12-09T19:57:29.278Z,6.30
2018-12-09T19:59:56.812Z,6.30
2018-12-09T20:02:24.532Z,6.30
2018-12-09T20:04:52.220Z,6.30
2018-12-09T20:07:19.769Z,6.30
2018-12-09T20:09:47.362Z,6.30
2018-12-09T20:12:14.998Z,6.40
2018-12-09T20:14:42.550Z,6.40
2018-12-09T20:17:10.214Z,6.40
2018-12-09T20:19:37.800Z,6.40
2018-12-09T20:22:05.387Z,6.40
2018-12-09T20:24:33.179Z,6.40
2018-12-09T20:27:00.723Z,6.40
2018-12-09T20:29:28.270Z,6.40
2018-12-09T20:31:56.839Z,6.50
2018-12-09T20:34:24.602Z,6.50
2018-12-09T20:36:52.315Z,6.50
2018-12-09T20:39:19.979Z,6.50
2018-12-09T20:41:47.515Z,6.50
2018-12-09T20:44:15.116Z,6.40
2018-12-09T20:46:42.731Z,6.40
2018-12-09T20:49:10.275Z,6.40
2018-12-09T20:51:38.082Z,6.40
2018-12-09T20:54:05.675Z,6.40
2018-12-09T20:56:34.072Z,6.40
2018-12-09T20:59:01.662Z,6.40
2018-12-09T21:01:29.322Z,6.40
2018-12-09T21:03:57.233Z,6.40
2018-12-09T21:06:25.273Z,6.40
2018-12-09T21:08:52.985Z,6.40
2018-12-09T21:11:20.568Z,6.40
2018-12-09T21:13:48.253Z,6.40
2018-12-09T21:16:16.176Z,6.50
2018-12-09T21:18:43.763Z,6.50
2018-12-09T21:21:11.308Z,6.50
2018-12-09T21:23:38.952Z,6.50
2018-12-09T21:26:06.512Z,6.50
2018-12-09T21:28:34.162Z,6.50
2018-12-09T21:31:01.794Z,6.60
2018-12-09T21:33:29.329Z,6.50
2018-12-09T21:35:57.785Z,6.50
2018-12-09T21:38:25.375Z,6.50
2018-12-09T21:40:52.924Z,6.50
2018-12-09T21:43:20.463Z,6.50
2018-12-09T21:45:48.050Z,6.50
2018-12-09T21:48:15.606Z,6.50
2018-12-09T21:50:43.145Z,6.50
2018-12-09T21:53:10.729Z,6.50
2018-12-09T21:55:38.271Z,6.50
2018-12-09T21:58:05.814Z,6.50
2018-12-09T22:00:33.388Z,6.40
2018-12-09T22:03:00.930Z,6.40
2018-12-09T22:05:28.472Z,6.40
2018-12-09T22:07:56.062Z,6.40
2018-12-09T22:10:23.606Z,6.40
2018-12-09T22:12:51.252Z,6.40
2018-12-09T22:15:18.815Z,6.30
2018-12-09T22:17:46.407Z,6.30
2018-12-09T22:20:13.956Z,6.30
2018-12-09T22:22:41.498Z,6.20
2018-12-09T22:25:09.151Z,6.20
2018-12-09T22:27:36.691Z,6.10
2018-12-09T22:30:04.669Z,6.10
2018-12-09T22:32:32.262Z,6.10
2018-12-09T22:34:59.791Z,6.10
2018-12-09T22:37:28.261Z,6.10
2018-12-09T22:39:55.854Z,6.20
2018-12-09T22:42:23.387Z,6.20
2018-12-09T22:44:51.846Z,6.10
2018-12-09T22:47:19.422Z,6.10
2018-12-09T22:49:46.958Z,6.10
2018-12-09T22:52:14.516Z,6.10
2018-12-09T22:54:42.103Z,6.10
2018-12-09T22:57:09.638Z,6.10
2018-12-09T22:59:37.167Z,6.10
2018-12-09T23:02:10.447Z,6.10
2018-12-09T23:04:37.978Z,6.10
2018-12-09T23:07:11.366Z,6.10
2018-12-09T23:09:38.918Z,6.10
2018-12-09T23:12:06.443Z,6.10
2018-12-09T23:14:34.018Z,6.10
2018-12-09T23:17:01.560Z,6.10
2018-12-09T23:19:29.187Z,6.00
2018-12-09T23:21:56.750Z,6.00
2018-12-09T23:24:24.278Z,6.00
2018-12-09T23:26:51.978Z,6.00
2018-12-09T23:29:19.510Z,6.00
2018-12-09T23:31:47.062Z,6.00
2018-12-09T23:34:14.658Z,6.10
2018-12-09T23:36:42.679Z,6.10
2018-12-09T23:39:10.215Z,6.10
2018-12-09T23:41:37.787Z,6.10
2018-12-09T23:44:05.364Z,6.10
2018-12-09T23:46:32.896Z,6.10
2018-12-09T23:49:00.475Z,6.10
2018-12-09T23:51:28.013Z,6.10
2018-12-09T23:53:55.552Z,6.10
2018-12-09T23:56:23.116Z,6.00
2018-12-09T23:58:50.703Z,6.00
